Time;durP1;ratioP1;P1;durP2;ratioP2;P2;SDS_P1;SDS_P2;PMS_P1;PMS_P2;Temp;Humidity;BMP_temperature;BMP_pressure;BME280_temperature;BME280_humidity;BME280_pressure;Samples;Min_cycle;Max_cycle;Signal;HPM_P1;HPM_P2
2024/01/27 00:00:14;;;;;;;7.57;0.65;;;3.60;99.90;;;;;;4998736;28;20042;-79
2024/01/27 00:02:40;;;;;;;10.30;0.90;;;3.60;99.90;;;;;;4996896;28;20029;-79
2024/01/27 00:05:06;;;;;;;10.73;0.70;;;3.60;99.90;;;;;;4997633;28;20046;-79
2024/01/27 00:07:31;;;;;;;15.95;1.75;;;3.50;99.90;;;;;;4997743;28;20038;-79
2024/01/27 00:09:59;;;;;;;10.52;0.50;;;3.60;99.90;;;;;;4999576;28;20394;-79
2024/01/27 00:12:24;;;;;;;10.70;0.30;;;3.50;99.90;;;;;;4998190;28;20054;-79
2024/01/27 00:14:50;;;;;;;12.38;0.75;;;3.40;99.90;;;;;;4998362;28;20371;-79
2024/01/27 00:17:16;;;;;;;24.52;3.17;;;3.40;99.90;;;;;;4997749;28;20088;-79
2024/01/27 00:19:42;;;;;;;5.05;1.25;;;4.30;99.90;;;;;;4999898;28;20031;-79
2024/01/27 00:22:08;;;;;;;8.32;0.77;;;3.30;99.90;;;;;;4998501;28;20102;-79
2024/01/27 00:24:34;;;;;;;11.20;0.85;;;3.30;99.90;;;;;;4999412;28;20390;-79
2024/01/27 00:27:00;;;;;;;12.30;0.55;;;3.20;99.90;;;;;;4997530;28;20030;-79
2024/01/27 00:29:26;;;;;;;14.95;0.77;;;3.20;99.90;;;;;;5001338;28;20513;-79
2024/01/27 00:31:54;;;;;;;7.78;0.70;;;3.20;99.90;;;;;;5001928;28;20115;-79
2024/01/27 00:34:20;;;;;;;15.57;1.38;;;3.10;99.90;;;;;;5000688;28;20026;-79
2024/01/27 00:36:48;;;;;;;19.13;1.45;;;3.10;99.90;;;;;;5000906;28;20026;-79
2024/01/27 00:39:18;;;;;;;16.95;1.23;;;3.10;99.90;;;;;;5000230;28;20105;-79
2024/01/27 00:41:44;;;;;;;17.80;0.75;;;3.20;99.90;;;;;;5001237;28;20030;-79
2024/01/27 00:44:10;;;;;;;5.10;0.40;;;3.00;99.90;;;;;;5000355;28;20097;-79
2024/01/27 00:46:39;;;;;;;14.15;1.40;;;3.00;99.90;;;;;;5000350;28;20029;-79
2024/01/27 00:49:04;;;;;;;10.48;0.57;;;3.00;99.90;;;;;;4999396;28;20026;-79
2024/01/27 00:51:30;;;;;;;9.13;0.65;;;3.00;99.90;;;;;;5000048;28;20114;-79
2024/01/27 00:53:56;;;;;;;11.63;0.57;;;3.10;99.90;;;;;;5001911;28;20022;-78
2024/01/27 00:56:21;;;;;;;14.55;0.90;;;3.10;99.90;;;;;;5002409;28;20026;-79
2024/01/27 00:58:48;;;;;;;18.20;0.57;;;3.10;99.90;;;;;;5005476;28;20114;-79
2024/01/27 01:01:14;;;;;;;14.95;0.90;;;3.10;99.90;;;;;;5006704;28;20035;-79
2024/01/27 01:03:40;;;;;;;8.98;0.55;;;4.00;99.90;;;;;;5000604;28;20034;-79
2024/01/27 01:06:08;;;;;;;13.02;0.82;;;3.20;99.90;;;;;;5001795;28;20019;-79
2024/01/27 01:08:34;;;;;;;11.35;0.57;;;3.20;99.90;;;;;;4999826;28;20038;-79
2024/01/27 01:11:00;;;;;;;17.05;1.30;;;3.20;99.90;;;;;;5000723;28;20027;-79
2024/01/27 01:13:25;;;;;;;12.45;0.65;;;3.10;99.90;;;;;;4999538;28;20036;-79
2024/01/27 01:15:51;;;;;;;18.33;1.15;;;3.10;99.90;;;;;;4999791;28;20057;-79
2024/01/27 01:18:16;;;;;;;11.98;1.73;;;3.10;99.90;;;;;;5001201;28;20033;-79
2024/01/27 01:20:42;;;;;;;12.50;1.08;;;3.10;99.90;;;;;;4999927;28;20053;-79
2024/01/27 01:23:07;;;;;;;15.75;0.93;;;3.00;99.90;;;;;;5000643;28;20026;-79
2024/01/27 01:25:33;;;;;;;13.30;1.95;;;3.10;99.90;;;;;;4999506;28;20027;-80
2024/01/27 01:27:59;;;;;;;12.00;0.57;;;3.00;99.90;;;;;;4999449;28;20486;-79
2024/01/27 01:30:24;;;;;;;14.90;0.80;;;3.00;99.90;;;;;;5001002;28;20014;-79
2024/01/27 01:32:50;;;;;;;14.70;0.55;;;3.00;99.90;;;;;;5000030;28;20026;-79
2024/01/27 01:35:16;;;;;;;14.20;0.32;;;2.90;99.90;;;;;;4999286;28;20018;-79
2024/01/27 01:37:41;;;;;;;12.10;1.67;;;2.90;99.90;;;;;;5000970;28;20497;-79
2024/01/27 01:40:07;;;;;;;13.70;0.45;;;2.90;99.90;;;;;;4999086;28;20033;-79
2024/01/27 01:42:33;;;;;;;7.35;0.40;;;2.90;99.90;;;;;;4999071;28;20226;-79
2024/01/27 01:44:59;;;;;;;7.75;0.47;;;2.90;99.90;;;;;;4998584;28;20057;-79
2024/01/27 01:50:00;;;;;;;9.70;0.28;;;;;;;;;;5946012;23;20051;-79
2024/01/27 01:52:26;;;;;;;13.25;0.82;;;;;;;;;;5000343;28;20038;-79
2024/01/27 01:54:52;;;;;;;12.10;0.77;;;;;;;;;;5001399;28;20037;-79
2024/01/27 01:57:19;;;;;;;6.25;0.30;;;;;;;;;;5000859;28;20026;-79
2024/01/27 01:59:45;;;;;;;16.02;1.02;;;;;;;;;;5001275;28;20030;-79
2024/01/27 02:02:13;;;;;;;13.35;0.55;;;;;;;;;;5000295;28;20061;-79
2024/01/27 02:04:42;;;;;;;9.52;0.65;;;;;;;;;;5001509;28;20014;-79
2024/01/27 02:07:08;;;;;;;9.68;1.13;;;;;;;;;;4998854;28;20035;-79
2024/01/27 02:09:37;;;;;;;9.77;0.85;;;;;;;;;;4999509;28;20034;-79
2024/01/27 02:12:03;;;;;;;13.05;1.20;;;;;;;;;;4999891;28;20026;-79
2024/01/27 02:14:30;;;;;;;15.93;1.52;;;;;;;;;;4999535;28;20034;-79
2024/01/27 02:16:56;;;;;;;14.45;0.88;;;;;;;;;;4998895;28;20026;-79
2024/01/27 02:19:22;;;;;;;10.10;0.35;;;;;;;;;;4999060;28;20062;-79
2024/01/27 02:21:48;;;;;;;8.48;0.17;;;;;;;;;;5000188;28;20038;-79
2024/01/27 02:24:14;;;;;;;7.38;1.25;;;;;;;;;;4999048;28;20076;-79
2024/01/27 02:26:40;;;;;;;5.80;0.10;;;;;;;;;;4998030;28;20029;-79
2024/01/27 02:29:06;;;;;;;7.50;1.05;;;;;;;;;;5001789;28;20078;-79
2024/01/27 02:31:32;;;;;;;10.82;0.38;;;;;;;;;;5000101;28;20121;-79
2024/01/27 02:33:58;;;;;;;11.18;0.40;;;;;;;;;;5001583;28;20034;-79
2024/01/27 02:49:23;;;;;;;3.65;0.73;;;3.00;99.90;;;;;;4999565;23;20058;-79
2024/01/27 02:51:49;;;;;;;6.28;0.20;;;3.00;99.90;;;;;;4998668;28;20109;-79
2024/01/27 02:54:15;;;;;;;12.88;0.38;;;3.00;99.90;;;;;;4998873;28;20057;-79
2024/01/27 02:59:35;;;;;;;8.90;0.30;;;3.00;99.90;;;;;;6111072;23;20537;-79
2024/01/27 03:02:01;;;;;;;11.60;0.70;;;3.00;99.90;;;;;;4998629;28;20033;-78
2024/01/27 03:04:26;;;;;;;6.57;0.88;;;2.90;99.90;;;;;;5000660;28;20486;-79
2024/01/27 03:15:26;;;;;;;4.53;0.20;;;2.90;99.90;;;;;;5350933;23;20817;-78
2024/01/27 03:17:52;;;;;;;11.75;0.50;;;2.90;99.90;;;;;;4998718;28;20026;-78
2024/01/27 03:20:17;;;;;;;5.78;0.38;;;2.90;99.90;;;;;;4999359;28;20029;-79
2024/01/27 03:22:43;;;;;;;7.88;0.00;;;2.90;99.90;;;;;;4999872;28;20521;-78
2024/01/27 03:25:13;;;;;;;6.03;0.20;;;3.80;99.90;;;;;;4999317;28;20026;-78
2024/01/27 03:30:15;;;;;;;12.38;1.23;;;;;;;;;;5758559;23;20065;-79
2024/01/27 03:32:41;;;;;;;10.63;0.52;;;;;;;;;;4999223;28;20490;-78
2024/01/27 03:35:08;;;;;;;12.07;1.17;;;;;;;;;;4998288;28;20038;-78
2024/01/27 03:56:13;;;;;;;10.10;0.55;;;2.80;99.90;;;;;;5704976;23;20046;-79
2024/01/27 03:58:38;;;;;;;12.43;0.50;;;2.90;99.90;;;;;;5001183;28;20473;-79
2024/01/27 04:01:04;;;;;;;10.65;0.82;;;2.80;99.90;;;;;;5000429;28;20069;-79
2024/01/27 04:03:30;;;;;;;13.45;1.02;;;2.80;99.90;;;;;;4999500;28;20026;-78
2024/01/27 04:05:56;;;;;;;8.27;0.77;;;2.80;99.90;;;;;;4999319;28;20033;-79
2024/01/27 04:08:21;;;;;;;9.73;1.13;;;2.80;99.90;;;;;;4999313;28;20019;-78
2024/01/27 04:10:47;;;;;;;17.50;1.02;;;2.70;99.90;;;;;;5000725;28;20054;-79
2024/01/27 04:13:13;;;;;;;8.07;1.10;;;5.50;99.90;;;;;;5000268;28;20053;-79
2024/01/27 04:15:38;;;;;;;15.70;2.08;;;2.80;99.90;;;;;;4999310;28;20029;-79
2024/01/27 04:18:07;;;;;;;16.20;2.00;;;3.50;99.90;;;;;;4998767;28;20022;-79
2024/01/27 04:20:34;;;;;;;10.73;1.33;;;2.80;99.90;;;;;;4999990;28;20022;-79
2024/01/27 04:23:00;;;;;;;13.77;1.33;;;5.50;99.90;;;;;;5000381;28;20049;-78
2024/01/27 04:25:25;;;;;;;15.82;2.08;;;2.80;99.90;;;;;;4999508;28;20026;-78
2024/01/27 04:27:51;;;;;;;12.02;1.90;;;2.80;99.90;;;;;;5000075;28;20023;-78
2024/01/27 04:30:16;;;;;;;9.73;1.70;;;2.80;99.90;;;;;;5000690;28;20035;-79
2024/01/27 04:32:42;;;;;;;13.65;2.17;;;2.80;99.90;;;;;;5000498;28;20025;-79
2024/01/27 04:35:11;;;;;;;11.77;1.50;;;2.80;99.90;;;;;;4999101;28;20026;-79
2024/01/27 04:37:37;;;;;;;11.20;2.65;;;2.80;99.90;;;;;;4998076;28;20038;-79
2024/01/27 04:40:07;;;;;;;7.18;2.13;;;2.80;99.90;;;;;;4998609;28;20022;-79
2024/01/27 04:42:38;;;;;;;10.73;2.03;;;2.80;99.90;;;;;;4998087;28;20038;-79
2024/01/27 04:45:05;;;;;;;11.20;1.83;;;2.80;99.90;;;;;;5000390;28;20034;-79
2024/01/27 04:47:31;;;;;;;9.57;1.85;;;2.80;99.90;;;;;;4999404;28;20026;-78
2024/01/27 04:49:57;;;;;;;13.10;2.47;;;2.70;99.90;;;;;;5001278;28;20018;-78
2024/01/27 04:52:23;;;;;;;13.30;2.63;;;;;;;;;;4998953;28;20030;-78
2024/01/27 04:54:49;;;;;;;19.73;2.88;;;2.70;99.90;;;;;;4998620;28;20029;-78
2024/01/27 04:57:16;;;;;;;16.92;2.00;;;2.80;99.90;;;;;;4997221;28;20030;-79
2024/01/27 04:59:41;;;;;;;18.85;3.05;;;2.80;99.90;;;;;;4998461;28;20034;-78
2024/01/27 05:02:07;;;;;;;8.40;2.08;;;2.80;99.90;;;;;;4998756;28;20027;-79
2024/01/27 05:04:33;;;;;;;12.82;1.73;;;2.80;99.90;;;;;;4998838;28;20545;-78
2024/01/27 07:09:16;;;;;;;14.30;3.20;;;2.60;99.90;;;;;;5146379;23;20046;-78
2024/01/27 07:11:42;;;;;;;12.98;2.80;;;2.70;99.90;;;;;;4998706;28;20121;-78
2024/01/27 07:14:07;;;;;;;11.55;4.10;;;2.70;99.90;;;;;;4998972;28;20034;-78
2024/01/27 07:19:11;;;;;;;17.92;3.67;;;2.70;99.90;;;;;;5872664;23;20053;-78
2024/01/27 07:21:36;;;;;;;22.63;3.83;;;2.70;99.90;;;;;;4999300;28;20073;-79
2024/01/27 07:24:03;;;;;;;16.75;3.92;;;2.70;99.90;;;;;;4997109;28;20026;-79
2024/01/27 07:26:29;;;;;;;15.27;3.92;;;2.70;99.90;;;;;;4997829;28;20033;-79
2024/01/27 07:28:55;;;;;;;11.38;3.30;;;;;;;;;;5000465;28;20026;-78
2024/01/27 07:31:22;;;;;;;12.05;2.90;;;2.80;99.90;;;;;;4998672;28;20454;-78
2024/01/27 07:33:48;;;;;;;11.38;3.90;;;4.30;99.90;;;;;;4998238;28;20026;-79
2024/01/27 07:36:14;;;;;;;18.55;3.58;;;2.80;99.90;;;;;;4998371;28;20030;-79
2024/01/27 07:38:39;;;;;;;13.68;2.72;;;3.70;99.90;;;;;;4998587;28;20402;-79
2024/01/27 07:41:05;;;;;;;15.10;3.17;;;2.90;99.90;;;;;;4997209;28;20113;-79
2024/01/27 07:43:31;;;;;;;10.10;3.95;;;2.90;99.90;;;;;;4997377;28;20034;-79
2024/01/27 08:06:51;;;;;;;14.88;3.58;;;;;;;;;;5522135;23;20050;-78
2024/01/27 08:09:17;;;;;;;11.40;3.70;;;;;;;;;;4998821;28;20113;-78
2024/01/27 08:11:43;;;;;;;22.40;3.55;;;;;;;;;;4997669;28;20032;-78
2024/01/27 08:14:09;;;;;;;8.38;3.05;;;3.30;99.90;;;;;;4998471;28;20437;-79
2024/01/27 08:16:35;;;;;;;11.07;2.50;;;3.40;99.90;;;;;;4998239;28;20018;-79
2024/01/27 08:19:01;;;;;;;12.77;3.08;;;3.40;99.90;;;;;;4997320;28;20056;-79
2024/01/27 08:21:26;;;;;;;15.63;4.85;;;5.70;99.90;;;;;;4997316;28;20030;-79
2024/01/27 08:23:53;;;;;;;16.33;4.07;;;3.40;99.90;;;;;;4997475;28;20022;-78
2024/01/27 08:26:20;;;;;;;9.80;2.85;;;3.50;99.90;;;;;;4997159;28;20360;-78
2024/01/27 08:28:46;;;;;;;11.38;3.25;;;3.50;99.90;;;;;;4998275;28;20029;-78
2024/01/27 08:31:12;;;;;;;16.75;2.67;;;3.60;99.90;;;;;;4997511;28;20026;-79
2024/01/27 08:33:38;;;;;;;12.68;3.13;;;3.60;99.90;;;;;;4998726;28;20125;-79
2024/01/27 08:36:03;;;;;;;19.15;2.63;;;3.70;99.90;;;;;;4997254;28;20029;-79
2024/01/27 08:38:29;;;;;;;12.05;3.15;;;3.70;99.90;;;;;;4999039;28;20034;-80
2024/01/27 08:40:55;;;;;;;16.15;4.35;;;3.80;99.90;;;;;;4999733;28;20057;-78
2024/01/27 08:43:21;;;;;;;13.82;3.08;;;4.30;99.90;;;;;;4998592;28;20030;-77
2024/01/27 08:45:46;;;;;;;13.98;3.30;;;3.90;99.90;;;;;;4998089;28;20053;-78
2024/01/27 08:48:12;;;;;;;14.95;3.60;;;3.90;99.90;;;;;;4996649;28;20018;-78
2024/01/27 08:50:38;;;;;;;15.07;2.95;;;4.20;99.90;;;;;;5000067;28;20014;-79
2024/01/27 08:53:38;;;;;;;10.20;2.63;;;4.00;99.90;;;;;;5010371;28;20023;-80
2024/01/27 08:56:36;;;;;;;9.38;3.10;;;4.10;99.90;;;;;;5011887;28;20094;-80
2024/01/27 09:06:34;;;;;;;12.50;2.75;;;4.50;99.90;;;;;;4991829;28;20058;-80
2024/01/27 09:09:17;;;;;;;9.25;2.83;;;4.50;99.90;;;;;;4987981;28;20035;-80
2024/01/27 09:11:44;;;;;;;10.45;2.67;;;;;;;;;;5010348;28;20027;-80
2024/01/27 09:14:10;;;;;;;7.70;2.40;;;;;;;;;;5008500;28;20022;-79
2024/01/27 09:16:36;;;;;;;10.20;3.25;;;4.80;99.90;;;;;;5004823;28;20040;-79
2024/01/27 09:19:02;;;;;;;19.73;3.75;;;7.10;99.90;;;;;;5001912;28;20026;-81
2024/01/27 09:21:32;;;;;;;12.52;2.90;;;4.80;99.90;;;;;;5001475;28;20094;-80
2024/01/27 09:23:58;;;;;;;11.48;2.85;;;4.80;99.90;;;;;;5002025;28;20026;-81
2024/01/27 09:26:24;;;;;;;14.32;3.35;;;4.90;99.90;;;;;;5002982;28;20022;-80
2024/01/27 09:28:54;;;;;;;12.00;3.03;;;;;;;;;;5004537;28;20054;-81
2024/01/27 09:31:22;;;;;;;18.83;3.67;;;5.00;99.90;;;;;;5011860;28;20049;-80
2024/01/27 09:33:52;;;;;;;18.20;3.75;;;5.20;99.90;;;;;;5007823;28;20022;-80
2024/01/27 09:36:19;;;;;;;11.20;3.95;;;5.20;99.90;;;;;;5001910;28;20014;-80
2024/01/27 09:38:45;;;;;;;17.58;5.25;;;5.20;99.90;;;;;;5001657;28;20037;-80
2024/01/27 09:41:13;;;;;;;13.23;4.13;;;5.30;99.90;;;;;;5001433;28;20034;-80
2024/01/27 09:43:44;;;;;;;15.93;3.28;;;7.90;99.90;;;;;;5000974;28;20034;-80
2024/01/27 09:46:10;;;;;;;18.02;3.72;;;5.30;99.90;;;;;;4999336;28;20125;-80
2024/01/27 09:48:36;;;;;;;15.30;3.85;;;7.70;99.90;;;;;;5000395;28;20033;-80
2024/01/27 09:51:04;;;;;;;16.25;4.45;;;5.40;99.90;;;;;;4999718;28;20049;-80
2024/01/27 09:53:29;;;;;;;16.83;3.70;;;5.50;99.90;;;;;;4999101;28;20037;-80
2024/01/27 09:55:58;;;;;;;19.73;4.60;;;5.50;99.90;;;;;;4999608;28;20034;-80
2024/01/27 09:58:29;;;;;;;12.15;3.30;;;5.50;99.90;;;;;;5000303;28;20022;-80
2024/01/27 10:01:00;;;;;;;10.20;2.80;;;5.60;99.90;;;;;;5000442;28;20057;-80
2024/01/27 10:03:28;;;;;;;11.25;2.80;;;6.40;99.90;;;;;;5000367;28;20030;-80
2024/01/27 10:05:55;;;;;;;16.27;3.47;;;5.70;99.90;;;;;;4999154;28;20085;-81
2024/01/27 10:08:22;;;;;;;18.40;3.97;;;5.80;99.90;;;;;;4998266;28;20030;-81
2024/01/27 10:10:48;;;;;;;13.95;3.53;;;5.70;99.90;;;;;;4998595;28;20026;-82
2024/01/27 10:13:17;;;;;;;13.65;4.32;;;9.00;99.90;;;;;;4998763;28;20027;-81
2024/01/27 10:15:43;;;;;;;15.23;2.85;;;5.90;99.90;;;;;;4999358;28;20417;-81
2024/01/27 10:18:12;;;;;;;12.18;2.80;;;5.80;99.90;;;;;;4999242;28;20081;-81
2024/01/27 10:20:42;;;;;;;15.25;2.85;;;5.90;99.90;;;;;;4999538;28;20029;-81
2024/01/27 10:23:11;;;;;;;12.68;3.35;;;5.90;99.90;;;;;;4999826;28;20026;-81
2024/01/27 10:25:38;;;;;;;16.45;4.13;;;6.10;99.90;;;;;;4999528;28;20505;-82
2024/01/27 10:28:07;;;;;;;17.52;4.32;;;6.20;99.90;;;;;;4999862;28;20209;-81
2024/01/27 10:30:33;;;;;;;15.73;3.55;;;6.20;99.90;;;;;;4999805;28;20010;-83
2024/01/27 10:32:58;;;;;;;13.80;3.42;;;6.30;99.90;;;;;;4999877;28;20026;-82
2024/01/27 10:35:24;;;;;;;12.20;2.80;;;6.40;99.90;;;;;;5002220;28;20022;-82
2024/01/27 10:37:54;;;;;;;16.55;2.80;;;6.40;99.90;;;;;;5000291;28;20023;-81
2024/01/27 10:40:20;;;;;;;17.95;3.75;;;6.40;99.90;;;;;;5000747;28;20034;-84
2024/01/27 10:42:47;;;;;;;15.90;2.65;;;6.60;99.90;;;;;;5001555;28;20035;-81
2024/01/27 10:45:14;;;;;;;17.17;2.55;;;6.50;99.90;;;;;;5000960;28;20026;-81
2024/01/27 10:47:40;;;;;;;13.68;2.53;;;6.70;99.90;;;;;;4999681;28;20049;-81
2024/01/27 10:50:12;;;;;;;10.27;2.92;;;7.00;99.90;;;;;;4999636;28;20018;-81
2024/01/27 10:52:41;;;;;;;15.10;3.28;;;6.70;99.90;;;;;;5000504;28;20038;-81
2024/01/27 10:55:09;;;;;;;12.38;2.72;;;6.70;99.90;;;;;;4999680;28;20100;-82
2024/01/27 10:57:36;;;;;;;14.60;2.17;;;6.70;99.90;;;;;;5000292;28;20090;-80
2024/01/27 11:00:06;;;;;;;10.35;1.85;;;6.70;99.90;;;;;;5000413;28;20026;-81
2024/01/27 11:02:35;;;;;;;13.73;2.13;;;6.70;99.90;;;;;;4999023;28;20021;-81
2024/01/27 11:05:07;;;;;;;11.60;2.40;;;6.70;99.90;;;;;;4998917;28;20040;-81
2024/01/27 11:07:34;;;;;;;18.90;2.88;;;6.90;99.90;;;;;;4998812;28;20022;-82
2024/01/27 11:10:00;;;;;;;11.60;2.15;;;7.00;99.90;;;;;;4999112;28;20118;-81
2024/01/27 11:12:26;;;;;;;8.07;2.05;;;7.00;99.90;;;;;;4998271;28;20478;-81
2024/01/27 11:14:53;;;;;;;13.05;2.70;;;8.40;99.90;;;;;;4999635;28;20018;-81
2024/01/27 11:17:19;;;;;;;8.32;2.45;;;7.30;99.90;;;;;;4998220;28;20034;-81
2024/01/27 11:19:46;;;;;;;11.10;2.50;;;7.30;99.90;;;;;;4998602;28;20030;-81
2024/01/27 11:22:28;;;;;;;11.75;1.70;;;7.40;99.90;;;;;;4999273;28;20056;-82
2024/01/27 11:25:12;;;;;;;7.90;1.73;;;7.40;99.90;;;;;;5000209;28;20077;-82
2024/01/27 11:27:39;;;;;;;14.50;2.03;;;7.50;99.90;;;;;;5000000;28;20015;-82
2024/01/27 11:30:23;;;;;;;15.52;2.95;;;7.50;99.90;;;;;;4999875;28;20026;-81
2024/01/27 11:32:49;;;;;;;12.15;1.48;;;7.50;99.90;;;;;;4998098;28;20026;-81
2024/01/27 11:35:17;;;;;;;8.85;0.75;;;7.50;99.90;;;;;;5000041;28;20050;-82
2024/01/27 11:37:43;;;;;;;10.82;1.48;;;7.40;99.90;;;;;;4998538;28;20023;-83
2024/01/27 11:40:09;;;;;;;9.13;2.08;;;7.50;99.90;;;;;;4998543;28;20049;-82
2024/01/27 11:42:35;;;;;;;10.07;1.42;;;7.50;99.90;;;;;;4998264;28;20049;-81
2024/01/27 11:45:01;;;;;;;13.10;1.45;;;7.50;99.90;;;;;;4998593;28;20022;-81
2024/01/27 11:47:27;;;;;;;8.85;1.65;;;7.70;99.90;;;;;;4999053;28;20018;-81
2024/01/27 11:49:55;;;;;;;18.05;2.22;;;7.70;99.90;;;;;;4998911;28;20026;-81
2024/01/27 11:52:21;;;;;;;12.75;1.73;;;8.60;99.90;;;;;;4998249;28;20029;-81
2024/01/27 11:55:02;;;;;;;14.05;1.65;;;7.70;99.90;;;;;;4998634;28;20113;-81
2024/01/27 11:57:28;;;;;;;9.45;2.05;;;7.60;99.90;;;;;;4997966;28;20061;-80
2024/01/27 11:59:54;;;;;;;12.10;2.20;;;7.70;99.90;;;;;;4998325;28;20018;-81
2024/01/27 12:02:20;;;;;;;15.57;1.55;;;7.90;99.90;;;;;;4999821;28;20509;-81
2024/01/27 12:04:47;;;;;;;11.52;1.70;;;7.90;99.90;;;;;;5000452;28;20030;-81
2024/01/27 12:07:13;;;;;;;10.48;2.42;;;7.90;99.90;;;;;;4999727;28;20027;-81
2024/01/27 12:09:38;;;;;;;10.02;1.60;;;7.90;99.90;;;;;;4999706;28;20086;-82
2024/01/27 12:12:05;;;;;;;10.88;1.48;;;11.00;99.90;;;;;;4997827;28;20069;-81
2024/01/27 12:14:47;;;;;;;8.98;1.92;;;8.20;99.90;;;;;;4999601;28;20402;-81
2024/01/27 12:17:12;;;;;;;6.70;0.98;;;8.20;99.90;;;;;;4999616;28;20023;-81
2024/01/27 12:19:39;;;;;;;11.48;1.58;;;8.20;99.90;;;;;;4998150;28;20174;-81
2024/01/27 12:22:20;;;;;;;7.43;1.60;;;8.30;99.90;;;;;;4999589;28;20030;-81
2024/01/27 12:24:46;;;;;;;12.43;1.13;;;8.40;99.90;;;;;;5001986;28;20505;-81
2024/01/27 12:27:12;;;;;;;7.28;1.30;;;8.50;99.90;;;;;;5002984;28;20018;-80
2024/01/27 12:29:40;;;;;;;11.77;1.25;;;10.00;99.90;;;;;;5003251;28;20027;-80
2024/01/27 12:32:06;;;;;;;12.55;1.67;;;8.50;99.90;;;;;;4987461;28;20478;-80
2024/01/27 12:34:32;;;;;;;8.13;1.50;;;8.70;99.90;;;;;;5002675;28;20027;-80
2024/01/27 12:36:58;;;;;;;12.73;1.38;;;;;;;;;;5002478;28;20034;-80
2024/01/27 12:39:25;;;;;;;7.03;0.85;;;8.60;99.90;;;;;;5002465;28;20397;-80
2024/01/27 12:41:51;;;;;;;6.25;0.50;;;8.60;99.90;;;;;;5003767;28;20027;-80
2024/01/27 12:44:16;;;;;;;14.90;2.45;;;8.60;99.90;;;;;;5002323;28;20026;-80
2024/01/27 12:46:42;;;;;;;7.63;0.88;;;8.80;99.90;;;;;;5002603;28;20015;-80
2024/01/27 12:49:08;;;;;;;12.50;1.80;;;9.40;99.90;;;;;;5002589;28;20038;-80
2024/01/27 12:51:34;;;;;;;11.88;0.68;;;9.00;99.90;;;;;;5001618;28;20053;-80
2024/01/27 12:53:59;;;;;;;4.68;0.65;;;9.00;99.90;;;;;;5002310;28;20390;-79
2024/01/27 12:56:25;;;;;;;15.50;1.50;;;9.00;99.90;;;;;;5001870;28;20019;-80
2024/01/27 12:58:51;;;;;;;6.55;1.15;;;9.00;99.90;;;;;;5001868;28;20069;-80
2024/01/27 13:01:17;;;;;;;9.23;1.27;;;9.00;99.90;;;;;;5002505;28;20028;-80
2024/01/27 13:03:43;;;;;;;14.05;0.70;;;9.00;99.90;;;;;;5001220;28;20065;-80
2024/01/27 13:06:08;;;;;;;6.80;0.65;;;9.00;99.90;;;;;;5003065;28;20019;-79
2024/01/27 13:08:34;;;;;;;11.90;0.77;;;9.10;99.90;;;;;;5001900;28;20033;-80
2024/01/27 13:11:00;;;;;;;4.10;0.52;;;9.00;99.90;;;;;;5001926;28;20402;-79
2024/01/27 13:13:26;;;;;;;7.82;0.63;;;8.90;99.90;;;;;;5002735;28;20450;-80
2024/01/27 13:15:51;;;;;;;5.40;0.50;;;8.70;99.90;;;;;;5002954;28;20080;-80
2024/01/27 13:18:17;;;;;;;8.85;1.08;;;8.60;99.90;;;;;;5003260;28;20124;-80
2024/01/27 13:20:43;;;;;;;9.20;0.50;;;8.60;99.90;;;;;;5000870;28;20034;-79
2024/01/27 13:23:08;;;;;;;16.15;1.58;;;8.60;99.90;;;;;;5002890;28;20073;-79
2024/01/27 13:25:34;;;;;;;10.55;1.00;;;8.70;99.90;;;;;;5002481;28;20026;-80
2024/01/27 13:28:00;;;;;;;7.95;1.10;;;8.70;99.90;;;;;;5002920;28;20020;-80
2024/01/27 13:30:27;;;;;;;7.80;0.95;;;8.70;99.90;;;;;;5002469;28;20446;-80
2024/01/27 13:32:52;;;;;;;13.52;1.10;;;8.70;99.90;;;;;;5002643;28;20026;-80
2024/01/27 13:35:18;;;;;;;8.68;1.40;;;8.70;99.90;;;;;;5002007;28;20390;-80
2024/01/27 13:37:45;;;;;;;10.02;1.40;;;9.90;99.90;;;;;;5003811;28;20029;-80
2024/01/27 13:40:11;;;;;;;16.13;1.25;;;8.80;99.90;;;;;;5002991;28;20040;-79
2024/01/27 13:42:37;;;;;;;42.30;3.20;;;8.80;99.90;;;;;;5001521;28;20121;-80
2024/01/27 13:45:04;;;;;;;11.98;0.57;;;8.80;99.90;;;;;;5002861;28;20034;-80
2024/01/27 13:47:30;;;;;;;8.15;1.00;;;8.90;99.90;;;;;;5003718;28;20018;-79
2024/01/27 13:49:56;;;;;;;16.15;1.08;;;8.90;99.90;;;;;;5002355;28;20023;-80
2024/01/27 13:52:22;;;;;;;11.13;1.92;;;9.00;99.90;;;;;;5001711;28;20014;-80
2024/01/27 13:54:49;;;;;;;7.70;0.93;;;9.10;99.90;;;;;;5001291;28;20029;-79
2024/01/27 13:57:16;;;;;;;25.17;1.17;;;9.20;99.90;;;;;;5002801;28;20390;-81
2024/01/27 13:59:41;;;;;;;10.88;1.27;;;9.10;99.90;;;;;;5001959;28;20398;-81
2024/01/27 14:02:08;;;;;;;6.55;0.70;;;9.20;99.90;;;;;;5002603;28;20026;-81
2024/01/27 14:04:37;;;;;;;13.98;1.35;;;9.10;99.90;;;;;;5002407;28;20389;-81
2024/01/27 14:07:06;;;;;;;7.15;0.90;;;9.10;99.90;;;;;;5003183;28;20133;-81
2024/01/27 14:09:32;;;;;;;11.13;1.33;;;9.00;99.90;;;;;;5001767;28;20061;-82
2024/01/27 14:11:58;;;;;;;10.23;1.42;;;9.00;99.90;;;;;;5002547;28;20026;-82
2024/01/27 14:14:23;;;;;;;14.07;1.08;;;8.90;99.90;;;;;;5004350;28;20030;-81
2024/01/27 14:16:49;;;;;;;9.00;0.60;;;9.00;99.90;;;;;;5001179;28;20033;-82
2024/01/27 14:19:15;;;;;;;8.15;1.13;;;9.00;99.90;;;;;;5002665;28;20026;-81
2024/01/27 14:21:40;;;;;;;9.98;1.70;;;9.10;99.90;;;;;;5002353;28;20030;-82
2024/01/27 14:24:07;;;;;;;14.57;1.55;;;9.10;99.90;;;;;;5001353;28;20025;-82
2024/01/27 14:26:33;;;;;;;14.18;1.85;;;9.10;99.90;;;;;;5002023;28;20073;-82
2024/01/27 14:28:59;;;;;;;8.13;1.00;;;9.10;99.90;;;;;;4994177;28;20391;-82
2024/01/27 14:31:25;;;;;;;15.38;1.08;;;9.20;99.90;;;;;;4996466;28;20026;-78
2024/01/27 14:33:50;;;;;;;12.25;1.40;;;9.10;99.90;;;;;;4975506;28;20031;-79
2024/01/27 14:36:16;;;;;;;7.57;1.35;;;8.90;99.90;;;;;;4976093;28;20070;-79
2024/01/27 14:38:42;;;;;;;9.77;0.68;;;10.40;99.90;;;;;;4976371;28;20023;-79
2024/01/27 14:41:08;;;;;;;8.63;1.08;;;8.70;99.90;;;;;;4975508;28;20034;-78
2024/01/27 14:43:34;;;;;;;13.82;1.48;;;8.70;99.90;;;;;;4991687;28;20061;-78
2024/01/27 14:45:59;;;;;;;12.27;1.80;;;8.70;99.90;;;;;;4976542;28;20058;-78
2024/01/27 14:48:25;;;;;;;9.95;1.52;;;8.80;99.90;;;;;;4976166;28;20035;-78
2024/01/27 14:50:58;;;;;;;7.70;1.08;;;8.70;99.90;;;;;;4992108;28;20066;-78
2024/01/27 14:53:28;;;;;;;9.70;1.73;;;8.70;99.90;;;;;;4998208;28;20114;-77
2024/01/27 14:55:54;;;;;;;13.13;1.35;;;8.60;99.90;;;;;;4991213;28;20023;-78
2024/01/27 14:58:23;;;;;;;9.68;0.93;;;8.60;99.90;;;;;;4991857;28;20019;-78
2024/01/27 15:00:52;;;;;;;10.48;1.45;;;8.50;99.90;;;;;;4991540;28;20436;-78
2024/01/27 15:03:24;;;;;;;10.93;1.25;;;8.50;99.90;;;;;;4976800;28;20038;-78
2024/01/27 15:05:51;;;;;;;12.95;0.95;;;8.50;99.90;;;;;;4991704;28;20019;-79
2024/01/27 15:08:17;;;;;;;13.20;1.17;;;8.60;99.90;;;;;;4976614;28;20517;-79
2024/01/27 15:10:43;;;;;;;13.25;1.30;;;8.60;99.90;;;;;;4991912;28;20031;-78
2024/01/27 15:13:12;;;;;;;10.90;1.48;;;8.70;99.90;;;;;;4991444;28;20045;-78
2024/01/27 15:15:39;;;;;;;7.93;0.90;;;8.70;99.90;;;;;;4991499;28;20019;-78
2024/01/27 15:18:08;;;;;;;6.07;1.33;;;8.70;99.90;;;;;;4976474;28;20026;-78
2024/01/27 15:20:36;;;;;;;13.95;1.38;;;8.60;99.90;;;;;;4975631;28;20391;-79
2024/01/27 15:23:02;;;;;;;9.82;1.58;;;8.60;99.90;;;;;;4991727;28;20029;-79
2024/01/27 15:25:28;;;;;;;6.82;0.65;;;8.40;99.90;;;;;;4977455;28;20479;-79
2024/01/27 15:27:53;;;;;;;10.55;1.20;;;8.40;99.90;;;;;;4977880;28;20023;-78
2024/01/27 15:30:19;;;;;;;12.00;2.00;;;8.40;99.90;;;;;;4992998;28;20360;-78
2024/01/27 15:32:47;;;;;;;17.27;1.27;;;8.40;99.90;;;;;;4993152;28;20027;-78
2024/01/27 15:35:12;;;;;;;8.13;1.25;;;8.30;99.90;;;;;;4977380;28;20026;-79
2024/01/27 15:37:38;;;;;;;10.57;1.65;;;8.20;99.90;;;;;;4977650;28;20094;-79
2024/01/27 15:40:09;;;;;;;12.43;1.33;;;9.10;99.90;;;;;;4978752;28;20054;-78
2024/01/27 15:42:36;;;;;;;9.30;2.28;;;7.90;99.90;;;;;;4992282;28;20023;-78
2024/01/27 15:45:02;;;;;;;8.13;1.73;;;7.80;99.90;;;;;;4993027;28;20035;-78
2024/01/27 15:47:28;;;;;;;8.90;2.38;;;7.70;99.90;;;;;;4977456;28;20023;-78
2024/01/27 15:49:57;;;;;;;12.10;1.77;;;9.50;99.90;;;;;;4992417;28;20101;-79
2024/01/27 15:52:23;;;;;;;8.32;1.25;;;7.40;99.90;;;;;;4976585;28;20019;-78
2024/01/27 15:54:49;;;;;;;14.05;1.17;;;7.30;99.90;;;;;;4992786;28;20085;-78
2024/01/27 15:57:15;;;;;;;12.30;1.45;;;7.20;99.90;;;;;;4992223;28;20026;-78
2024/01/27 15:59:41;;;;;;;9.40;1.45;;;7.00;99.90;;;;;;4991548;28;20394;-78
2024/01/27 16:02:07;;;;;;;14.95;1.25;;;7.10;99.90;;;;;;4976272;28;20030;-79
2024/01/27 16:04:32;;;;;;;12.35;1.25;;;7.70;99.90;;;;;;4976310;28;20057;-78
2024/01/27 16:06:58;;;;;;;11.00;1.27;;;6.80;99.90;;;;;;4992287;28;20031;-78
2024/01/27 16:09:24;;;;;;;11.70;1.50;;;6.70;99.90;;;;;;4977857;28;20031;-78
2024/01/27 16:11:49;;;;;;;12.95;1.38;;;6.60;99.90;;;;;;4978274;28;20031;-79
2024/01/27 16:14:16;;;;;;;7.55;0.85;;;7.10;99.90;;;;;;4992761;28;20027;-78
2024/01/27 16:16:42;;;;;;;12.23;0.80;;;6.50;99.90;;;;;;4992623;28;20031;-78